Time;durP1;ratioP1;P1;durP2;ratioP2;P2;SDS_P1;SDS_P2;PMS_P1;PMS_P2;Temp;Humidity;BMP_temperature;BMP_pressure;BME280_temperature;BME280_humidity;BME280_pressure;Samples;Min_cycle;Max_cycle;Signal;HPM_P1;HPM_P2
2022/05/11 00:01:59;;;;;;;7.50;3.45;;;;;;;16.27;53.12;100105.84;4446616;32;33297;-89
2022/05/11 00:04:27;;;;;;;10.35;3.80;;;;;;;16.43;52.60;100094.91;4448805;32;34809;-89
2022/05/11 00:06:55;;;;;;;6.07;3.50;;;;;;;16.43;52.80;100097.69;4448323;32;34706;-88
2022/05/11 00:09:23;;;;;;;8.48;3.90;;;;;;;16.44;52.87;100088.31;4460927;32;34978;-89
2022/05/11 00:11:53;;;;;;;9.10;3.83;;;;;;;16.61;51.97;100091.22;4446789;32;33454;-89
2022/05/11 00:14:21;;;;;;;7.82;4.00;;;;;;;16.56;51.79;100095.78;4445429;32;33630;-89
2022/05/11 00:16:49;;;;;;;9.05;3.37;;;;;;;16.54;52.06;100093.25;4445185;32;34468;-89
2022/05/11 00:19:19;;;;;;;7.90;3.95;;;;;;;16.68;51.18;100091.16;4445152;32;33714;-90
2022/05/11 00:21:47;;;;;;;7.03;3.53;;;;;;;16.61;51.15;100102.31;4444292;32;33579;-88
2022/05/11 00:24:14;;;;;;;6.28;3.70;;;;;;;16.62;51.02;100092.06;4430814;32;32347;-88
2022/05/11 00:26:42;;;;;;;8.38;3.70;;;;;;;16.41;51.51;100096.25;4431641;32;34361;-89
2022/05/11 00:29:10;;;;;;;10.68;4.22;;;;;;;16.18;52.70;100101.72;4444460;32;34764;-89
2022/05/11 00:31:38;;;;;;;7.00;3.40;;;;;;;16.10;53.31;100100.97;4444125;32;31761;-88
2022/05/11 00:34:06;;;;;;;10.02;3.95;;;;;;;16.14;53.21;100099.44;4444206;32;33394;-88
2022/05/11 00:36:35;;;;;;;7.37;3.75;;;;;;;15.99;53.73;100092.63;4443924;32;33804;-88
2022/05/11 00:39:03;;;;;;;9.65;3.95;;;;;;;16.00;53.75;100095.16;4444404;32;33925;-87
2022/05/11 00:41:30;;;;;;;9.02;3.75;;;;;;;16.09;53.40;100088.22;4444100;32;33997;-88
2022/05/11 00:44:02;;;;;;;5.82;3.37;;;;;;;16.08;53.64;100094.00;4444147;32;33357;-88
2022/05/11 00:46:39;;;;;;;8.80;3.97;;;;;;;16.05;53.86;100094.47;4444839;32;34857;-90
2022/05/11 00:52:08;;;;;;;6.53;3.08;;;;;;;15.82;54.34;100092.44;4456643;32;32751;-89
2022/05/11 00:55:03;;;;;;;10.30;4.28;;;;;;;15.73;54.49;100096.59;4444022;32;34008;-82
2022/05/11 00:57:46;;;;;;;6.28;3.70;;;;;;;15.81;54.22;100096.28;4443873;32;32886;-82
2022/05/11 01:00:15;;;;;;;7.10;3.60;;;;;;;15.99;53.71;100087.94;4443779;32;32258;-83
2022/05/11 01:02:44;;;;;;;7.15;3.65;;;;;;;15.92;54.13;100100.19;4456816;32;33965;-82
2022/05/11 01:05:11;;;;;;;7.78;3.85;;;;;;;15.92;54.05;100089.09;4456453;32;33948;-89
2022/05/11 01:07:42;;;;;;;9.40;4.20;;;;;;;15.93;53.92;100093.56;4456264;32;33941;-87
2022/05/11 01:10:11;;;;;;;5.87;3.72;;;;;;;15.93;54.01;100088.88;4441167;32;34494;-89
2022/05/11 01:12:43;;;;;;;8.05;3.25;;;;;;;15.72;54.54;100092.97;4441032;32;31634;-82
2022/05/11 01:15:20;;;;;;;8.30;3.80;;;;;;;15.67;54.50;100087.28;4427924;32;31688;-91
2022/05/11 01:17:47;;;;;;;6.22;3.78;;;;;;;15.72;54.50;100092.13;4452627;32;34024;-91
2022/05/11 01:20:18;;;;;;;7.12;3.50;;;;;;;15.80;54.38;100095.44;4440173;32;34155;-88
2022/05/11 01:23:17;;;;;;;7.00;3.60;;;;;;;15.72;54.58;100090.22;4453829;32;33157;-90
2022/05/11 01:25:45;;;;;;;6.60;3.53;;;;;;;15.67;54.71;100092.84;4440723;32;31871;-90
2022/05/11 01:28:16;;;;;;;8.13;3.33;;;;;;;15.74;54.46;100093.59;4441082;32;35190;-91
2022/05/11 01:30:48;;;;;;;8.63;3.40;;;;;;;15.76;54.31;100093.38;4441007;32;32642;-89
2022/05/11 01:33:23;;;;;;;6.30;3.28;;;;;;;15.78;54.29;100092.06;4453514;32;34113;-91
2022/05/11 01:36:26;;;;;;;7.50;3.60;;;;;;;15.61;54.78;100095.69;4427911;32;32295;-91
2022/05/11 01:39:08;;;;;;;6.32;3.67;;;;;;;15.61;54.90;100101.22;4441127;32;35255;-91
2022/05/11 01:41:42;;;;;;;8.55;3.92;;;;;;;15.61;54.70;100106.75;4440995;32;33903;-91
2022/05/11 01:44:16;;;;;;;9.07;3.50;;;;;;;15.53;55.19;100099.59;4441166;32;34032;-92
2022/05/11 01:46:53;;;;;;;8.52;3.83;;;;;;;15.43;55.34;100094.59;4441147;32;33788;-91
2022/05/11 01:49:22;;;;;;;6.20;3.47;;;;;;;15.43;55.21;100097.38;4440957;32;34469;-91
2022/05/11 01:51:55;;;;;;;7.07;3.70;;;;;;;15.47;55.25;100101.37;4453668;32;33604;-92
2022/05/11 01:54:26;;;;;;;7.97;3.80;;;;;;;15.53;55.19;100093.22;4428253;32;32033;-91
2022/05/11 01:56:54;;;;;;;8.50;3.90;;;;;;;15.60;55.03;100086.53;4453470;32;33047;-91
2022/05/11 01:59:25;;;;;;;6.87;4.12;;;;;;;15.54;55.28;100097.69;4440733;32;32968;-90
2022/05/11 02:01:55;;;;;;;6.10;3.30;;;;;;;15.43;55.60;100100.12;4440749;32;33950;-92
2022/05/11 02:10:05;;;;;;;8.05;3.87;;;;;;;15.51;55.11;100098.16;4455953;32;33886;-91
2022/05/11 02:12:38;;;;;;;7.60;3.55;;;;;;;15.31;55.52;100090.06;4455616;32;33417;-91
2022/05/11 02:15:07;;;;;;;7.80;3.72;;;;;;;15.48;54.94;100088.37;4443632;32;31935;-91
2022/05/11 02:17:35;;;;;;;8.05;4.10;;;;;;;15.48;54.98;100088.37;4442819;32;32187;-91
2022/05/11 02:20:03;;;;;;;7.53;3.35;;;;;;;15.21;55.85;100090.59;4456101;32;32922;-90
2022/05/11 02:22:34;;;;;;;6.68;3.78;;;;;;;15.32;55.56;100092.59;4443410;32;32278;-92
2022/05/11 02:25:07;;;;;;;7.78;3.53;;;;;;;15.36;55.63;100093.00;4443430;32;33899;-89
2022/05/11 02:27:36;;;;;;;8.20;3.50;;;;;;;15.25;55.83;100088.22;4443470;32;33945;-91
2022/05/11 02:30:07;;;;;;;6.60;3.65;;;;;;;15.30;55.57;100093.91;4443161;32;33941;-91
2022/05/11 02:32:35;;;;;;;7.28;3.62;;;;;;;15.27;55.60;100088.84;4456313;32;34934;-91
2022/05/11 02:35:13;;;;;;;7.22;3.80;;;;;;;15.23;55.73;100090.38;4430717;32;32752;-91
2022/05/11 02:37:46;;;;;;;10.32;3.80;;;;;;;15.20;55.71;100091.69;4442965;32;31855;-92
2022/05/11 02:40:18;;;;;;;6.87;3.87;;;;;;;15.19;55.65;100092.75;4442927;32;32895;-91
2022/05/11 02:42:48;;;;;;;6.65;4.03;;;;;;;15.19;55.71;100084.47;4442984;32;33339;-92
2022/05/11 02:45:16;;;;;;;7.57;3.62;;;;;;;15.21;55.49;100078.69;4455964;32;34225;-91
2022/05/11 02:47:51;;;;;;;6.68;3.70;;;;;;;15.33;55.22;100083.22;4443355;32;33876;-91
2022/05/11 02:50:26;;;;;;;6.37;3.60;;;;;;;15.18;55.70;100085.53;4443277;32;34347;-92
2022/05/11 02:52:54;;;;;;;7.28;4.03;;;;;;;15.18;55.61;100090.22;4442877;32;32394;-89
2022/05/11 02:55:22;;;;;;;8.45;4.43;;;;;;;15.20;55.64;100086.16;4442976;32;31736;-89
2022/05/11 02:57:50;;;;;;;7.93;3.65;;;;;;;15.14;55.72;100085.13;4442948;32;33913;-90
2022/05/11 03:00:18;;;;;;;6.57;3.92;;;;;;;15.17;55.58;100086.59;4443132;32;34974;-89
2022/05/11 03:02:47;;;;;;;6.78;3.70;;;;;;;15.07;55.86;100083.53;4455784;32;33992;-89
2022/05/11 03:05:14;;;;;;;7.82;3.58;;;;;;;14.98;56.28;100080.19;4429906;32;32683;-89
2022/05/11 03:07:42;;;;;;;7.97;4.03;;;;;;;14.74;57.32;100086.62;4442777;32;33672;-90
2022/05/11 03:10:31;;;;;;;7.90;3.95;;;;;;;14.95;56.59;100082.59;4444489;32;32839;-85
2022/05/11 03:13:02;;;;;;;8.02;4.22;;;;;;;15.03;56.23;100082.28;4455657;32;34084;-84
2022/05/11 03:15:31;;;;;;;6.65;3.70;;;;;;;15.04;56.50;100083.97;4442827;32;33402;-85
2022/05/11 03:17:59;;;;;;;8.75;3.87;;;;;;;15.02;56.45;100080.59;4442818;32;33962;-85
2022/05/11 03:20:27;;;;;;;6.72;3.72;;;;;;;14.98;56.59;100090.41;4442508;32;34032;-85
2022/05/11 03:22:58;;;;;;;7.35;4.10;;;;;;;15.01;56.42;100090.81;4429870;32;33269;-85
2022/05/11 03:25:26;;;;;;;6.70;4.10;;;;;;;14.99;56.42;100083.81;4442686;32;34254;-86
2022/05/11 03:27:56;;;;;;;7.22;3.72;;;;;;;14.93;56.73;100077.31;4429711;32;33154;-87
2022/05/11 03:30:24;;;;;;;9.70;4.78;;;;;;;15.01;56.52;100088.03;4431830;32;33668;-86
2022/05/11 03:35:38;;;;;;;5.97;3.90;;;;;;;14.85;57.17;100099.72;4459384;32;34232;-86
2022/05/11 03:38:06;;;;;;;10.15;4.68;;;;;;;14.76;57.26;100104.66;4444608;32;33848;-86
2022/05/11 03:40:37;;;;;;;12.68;4.18;;;;;;;14.89;56.84;100106.47;4457259;32;34462;-85
2022/05/11 03:43:05;;;;;;;9.50;4.07;;;;;;;14.85;58.17;100107.16;4444798;32;34108;-85
2022/05/11 03:45:34;;;;;;;10.23;3.83;;;;;;;14.89;57.75;100113.91;4444571;32;32459;-85
2022/05/11 03:48:02;;;;;;;10.88;4.32;;;;;;;14.87;57.69;100105.84;4444487;32;33962;-85
2022/05/11 03:50:32;;;;;;;8.77;4.05;;;;;;;14.93;57.57;100115.16;4431696;32;33818;-84
2022/05/11 03:53:00;;;;;;;8.63;3.87;;;;;;;14.99;57.39;100115.06;4444199;32;32679;-84
2022/05/11 03:55:27;;;;;;;8.25;4.20;;;;;;;14.92;57.64;100114.31;4444441;32;33202;-85
2022/05/11 03:57:56;;;;;;;6.60;3.72;;;;;;;14.86;57.90;100114.38;4431870;32;33233;-85
2022/05/11 04:00:27;;;;;;;8.63;4.18;;;;;;;14.78;58.26;100112.75;4431656;32;33618;-84
2022/05/11 04:02:56;;;;;;;9.85;4.78;;;;;;;14.86;58.15;100106.94;4434578;32;33170;-84
2022/05/11 04:05:28;;;;;;;9.93;5.00;;;;;;;14.92;58.06;100107.94;4449110;32;34214;-85
2022/05/11 04:07:55;;;;;;;9.07;4.22;;;;;;;14.94;58.04;100111.31;4449287;32;33960;-84
2022/05/11 04:10:23;;;;;;;7.15;4.53;;;;;;;14.96;58.30;100111.91;4435247;32;33297;-84
2022/05/11 04:12:51;;;;;;;7.30;4.18;;;;;;;15.03;58.14;100109.94;4431317;32;34157;-84
2022/05/11 04:15:19;;;;;;;7.20;4.53;;;;;;;14.88;58.92;100123.28;4445738;32;33383;-84
2022/05/11 04:17:51;;;;;;;8.63;4.37;;;;;;;15.10;58.36;100124.53;4431988;32;34161;-85
2022/05/11 04:20:19;;;;;;;7.15;4.22;;;;;;;15.14;58.39;100123.84;4431369;32;32949;-85
2022/05/11 04:22:48;;;;;;;8.45;4.62;;;;;;;15.19;58.45;100128.69;4457270;32;34024;-84
2022/05/11 04:25:16;;;;;;;8.98;5.10;;;;;;;15.24;58.52;100125.25;4444303;32;33951;-84
2022/05/11 04:27:48;;;;;;;7.72;4.97;;;;;;;15.30;58.62;100119.66;4444384;32;33980;-84
2022/05/11 04:30:18;;;;;;;9.30;4.55;;;;;;;15.28;59.00;100123.72;4444110;32;33907;-84
2022/05/11 04:32:46;;;;;;;8.02;4.57;;;;;;;15.27;59.27;100128.41;4443978;32;33362;-84
2022/05/11 04:35:16;;;;;;;8.98;4.32;;;;;;;15.38;59.06;100124.03;4444360;32;34186;-84
2022/05/11 04:37:44;;;;;;;7.05;4.65;;;;;;;15.41;59.11;100123.56;4444096;32;33788;-84
2022/05/11 04:40:12;;;;;;;10.23;4.43;;;;;;;15.47;59.06;100130.94;4443918;32;34330;-84
2022/05/11 04:42:46;;;;;;;8.88;4.65;;;;;;;15.63;58.79;100132.25;4444582;32;33127;-84
2022/05/11 04:45:14;;;;;;;10.00;4.32;;;;;;;15.74;58.62;100128.72;4431266;32;32001;-84
2022/05/11 04:47:42;;;;;;;11.75;5.28;;;;;;;15.81;58.76;100135.03;4443977;32;34637;-84
2022/05/11 04:50:12;;;;;;;6.37;4.37;;;;;;;15.79;59.31;100126.09;4456822;32;34490;-84
2022/05/11 04:52:46;;;;;;;11.73;5.95;;;;;;;15.91;59.21;100124.25;4444426;32;33432;-84
2022/05/11 04:55:13;;;;;;;9.55;4.87;;;;;;;16.04;59.21;100123.22;4457783;32;33268;-83
2022/05/11 04:57:42;;;;;;;9.50;5.82;;;;;;;16.10;59.36;100128.69;4430948;32;33523;-83
2022/05/11 05:00:13;;;;;;;14.15;6.22;;;;;;;16.19;59.55;100129.19;4444378;32;35118;-81
2022/05/11 05:02:42;;;;;;;9.13;4.62;;;;;;;16.29;59.50;100131.38;4444048;32;33828;-81
2022/05/11 05:05:12;;;;;;;9.85;5.80;;;;;;;16.43;59.69;100130.09;4456729;32;34008;-81
2022/05/11 05:07:41;;;;;;;12.05;5.50;;;;;;;16.64;60.39;100129.59;4456749;32;34486;-83
2022/05/11 05:10:13;;;;;;;11.25;6.32;;;;;;;16.84;61.02;100133.97;4456807;32;35135;-87
2022/05/11 05:12:46;;;;;;;8.60;5.50;;;;;;;17.08;59.63;100132.88;4431693;32;32540;-88
2022/05/11 05:15:17;;;;;;;12.85;6.62;;;;;;;17.38;57.18;100133.59;4444429;32;34683;-89
2022/05/11 05:17:48;;;;;;;15.75;8.65;;;;;;;17.29;57.22;100131.44;4443602;32;32584;-87
2022/05/11 05:20:22;;;;;;;14.05;7.65;;;;;;;17.19;56.85;100136.72;4441531;32;34951;-85
2022/05/11 05:22:53;;;;;;;10.57;5.10;;;;;;;17.45;56.35;100131.53;4441753;32;32565;-82
2022/05/11 05:25:21;;;;;;;11.80;5.28;;;;;;;17.83;54.65;100130.16;4442980;32;33454;-84
2022/05/11 05:27:50;;;;;;;9.52;5.28;;;;;;;18.02;54.10;100134.44;4456027;32;34575;-84
2022/05/11 05:33:06;;;;;;;8.63;4.47;;;;;;;18.38;52.70;100126.78;4443940;32;32778;-83
2022/05/11 05:35:40;;;;;;;9.68;4.10;;;;;;;18.31;52.15;100129.69;4456121;32;33004;-84
2022/05/11 05:38:07;;;;;;;8.05;3.83;;;;;;;18.27;51.89;100127.66;4442778;32;33729;-84
2022/05/11 05:40:38;;;;;;;9.40;4.43;;;;;;;18.28;52.20;100132.97;4443502;32;32830;-85
2022/05/11 05:43:08;;;;;;;8.80;4.60;;;;;;;18.39;51.91;100131.25;4444146;32;33953;-84
2022/05/11 05:45:36;;;;;;;9.07;4.75;;;;;;;18.43;52.01;100132.44;4443597;32;31848;-83
2022/05/11 05:48:04;;;;;;;9.05;4.57;;;;;;;18.61;51.67;100125.84;4456147;32;34188;-83
2022/05/11 05:50:32;;;;;;;10.00;4.95;;;;;;;18.78;51.02;100123.06;4442941;32;32973;-83
2022/05/11 05:53:00;;;;;;;11.02;5.10;;;;;;;18.70;49.45;100129.91;4456016;32;33378;-81
2022/05/11 05:55:30;;;;;;;8.02;4.50;;;;;;;18.84;49.19;100127.63;4443366;32;32862;-82
2022/05/11 05:58:00;;;;;;;9.35;4.40;;;;;;;19.13;50.32;100122.78;4431234;32;32982;-81
2022/05/11 06:00:30;;;;;;;9.73;4.32;;;;;;;19.29;50.50;100127.50;4443354;32;33103;-81
2022/05/11 06:03:00;;;;;;;7.70;4.20;;;;;;;19.26;50.09;100128.00;4430540;32;33912;-81
2022/05/11 06:05:28;;;;;;;10.88;4.20;;;;;;;19.51;49.22;100121.94;4430841;32;31793;-82
2022/05/11 06:07:57;;;;;;;7.72;4.57;;;;;;;19.66;49.82;100125.81;4455868;32;32278;-81
2022/05/11 06:10:30;;;;;;;6.78;4.28;;;;;;;19.67;49.50;100127.50;4444158;32;34180;-81
2022/05/11 06:12:57;;;;;;;8.38;4.22;;;;;;;19.63;47.61;100125.50;4443745;32;33000;-81
2022/05/11 06:15:25;;;;;;;9.02;4.45;;;;;;;19.73;46.57;100131.19;4443589;32;34260;-82
2022/05/11 06:17:56;;;;;;;8.82;3.95;;;;;;;19.76;45.81;100129.84;4443581;32;32956;-81
2022/05/11 06:20:26;;;;;;;8.20;4.30;;;;;;;20.06;46.37;100130.22;4443277;32;33747;-81
2022/05/11 06:22:54;;;;;;;8.43;4.20;;;;;;;20.02;46.21;100129.91;4443224;32;34317;-81
2022/05/11 06:25:24;;;;;;;36.58;21.48;;;;;;;20.12;46.58;100123.62;4443502;32;34230;-81
2022/05/11 06:27:58;;;;;;;21.58;12.98;;;;;;;20.20;47.54;100127.84;4456168;32;33812;-82
2022/05/11 06:30:32;;;;;;;23.20;12.90;;;;;;;20.25;46.68;100128.75;4456447;32;34465;-81
2022/05/11 06:33:03;;;;;;;25.98;15.88;;;;;;;20.41;46.50;100123.38;4443994;32;34004;-81
2022/05/11 06:35:33;;;;;;;15.82;9.63;;;;;;;20.56;46.47;100127.16;4443306;32;31808;-82
2022/05/11 06:38:08;;;;;;;12.23;7.28;;;;;;;20.61;46.60;100120.81;4444262;32;33713;-82
2022/05/11 06:40:37;;;;;;;13.57;6.47;;;;;;;20.89;46.81;100122.41;4456627;32;35043;-81
2022/05/11 06:43:09;;;;;;;9.68;4.07;;;;;;;20.97;47.12;100122.78;4443151;32;32533;-82
2022/05/11 06:45:36;;;;;;;10.30;6.22;;;;;;;21.11;46.10;100123.16;4443569;32;33999;-82
2022/05/11 06:48:04;;;;;;;8.50;4.20;;;;;;;21.23;45.91;100123.00;4443221;32;34513;-82
2022/05/11 06:50:32;;;;;;;8.60;3.90;;;;;;;21.42;46.15;100115.03;4442930;32;32684;-81
2022/05/11 06:53:11;;;;;;;6.95;4.10;;;;;;;21.59;46.12;100116.50;4442873;32;34001;-82
2022/05/11 07:01:21;;;;;;;7.07;3.53;;;;;;;21.84;44.81;100121.38;4458185;32;34320;-82
2022/05/11 07:03:56;;;;;;;11.20;3.60;;;;;;;21.88;43.47;100116.94;4443654;32;33500;-81
2022/05/11 07:06:24;;;;;;;66.28;35.97;;;;;;;21.90;45.04;100114.72;4443132;32;33243;-81
2022/05/11 07:08:52;;;;;;;17.67;7.65;;;;;;;22.14;44.07;100122.63;4455381;32;34536;-83
2022/05/11 07:14:09;;;;;;;9.75;4.95;;;;;;;22.47;43.73;100119.38;4457795;32;33840;-81
2022/05/11 07:16:37;;;;;;;6.87;3.20;;;;;;;22.47;41.75;100113.78;4455537;32;34201;-81
2022/05/11 07:19:07;;;;;;;6.85;2.90;;;;;;;22.19;37.97;100117.06;4455329;32;34459;-81
2022/05/11 07:21:35;;;;;;;8.02;3.58;;;;;;;22.22;37.12;100120.16;4455377;32;34519;-82
2022/05/11 07:24:03;;;;;;;8.75;3.45;;;;;;;22.57;36.50;100111.00;4429868;32;32249;-82
2022/05/11 07:26:31;;;;;;;7.87;3.92;;;;;;;23.00;37.38;100111.59;4442323;32;33527;-82
2022/05/11 07:28:59;;;;;;;9.07;4.37;;;;;;;23.16;37.05;100110.47;4442485;32;33800;-82
2022/05/11 07:31:29;;;;;;;7.30;3.20;;;;;;;23.35;37.91;100109.88;4455689;32;34745;-81
2022/05/11 07:33:57;;;;;;;6.37;3.10;;;;;;;23.28;36.12;100110.16;4442161;32;32185;-82
2022/05/11 07:36:27;;;;;;;19.75;13.13;;;;;;;23.39;36.77;100100.63;4455548;32;33990;-83
2022/05/11 07:38:55;;;;;;;8.15;3.55;;;;;;;23.50;36.92;100110.66;4442452;32;34331;-82
2022/05/11 07:41:23;;;;;;;10.70;5.35;;;;;;;23.60;36.54;100101.41;4454863;32;32915;-82
2022/05/11 07:43:51;;;;;;;15.73;10.70;;;;;;;23.75;36.73;100104.19;4442230;32;33494;-83
2022/05/11 07:46:19;;;;;;;5.47;3.47;;;;;;;23.72;39.76;100104.75;4442114;32;32039;-82
2022/05/11 07:48:47;;;;;;;5.22;2.95;;;;;;;23.86;36.74;100108.63;4454697;32;33666;-82
2022/05/11 07:51:14;;;;;;;6.45;3.30;;;;;;;23.85;35.61;100109.75;4442186;32;33023;-82
2022/05/11 07:53:44;;;;;;;6.60;3.03;;;;;;;23.78;35.61;100109.22;4442322;32;34515;-82
2022/05/11 08:01:51;;;;;;;12.15;3.53;;;;;;;23.83;33.82;100109.19;4443509;32;34059;-82
2022/05/11 08:04:19;;;;;;;5.80;3.40;;;;;;;24.29;33.75;100117.41;4441921;32;32598;-82
2022/05/11 08:06:46;;;;;;;6.75;3.08;;;;;;;24.51;32.94;100112.22;4454458;32;32702;-83
2022/05/11 08:09:17;;;;;;;7.95;3.30;;;;;;;24.42;32.70;100108.34;4441632;32;34550;-82
2022/05/11 08:11:50;;;;;;;6.50;2.97;;;;;;;24.43;32.85;100103.56;4442048;32;33923;-83
2022/05/11 08:14:18;;;;;;;5.65;3.10;;;;;;;24.68;33.14;100111.81;4455150;32;34152;-83
2022/05/11 08:16:52;;;;;;;20.55;11.35;;;;;;;24.85;34.53;100102.97;4431344;32;31837;-82
2022/05/11 08:19:20;;;;;;;9.05;4.20;;;;;;;25.04;34.21;100108.72;4457925;32;34755;-83
2022/05/11 08:21:49;;;;;;;8.90;3.35;;;;;;;25.06;32.73;100098.03;4444266;32;34416;-81
2022/05/11 08:24:20;;;;;;;6.62;3.22;;;;;;;25.26;33.20;100095.88;4456969;32;34035;-83
2022/05/11 08:26:51;;;;;;;8.90;2.83;;;;;;;25.08;32.39;100105.03;4444202;32;33158;-83
2022/05/11 08:34:54;;;;;;;5.97;2.60;;;;;;;25.34;33.38;100102.00;4445788;32;32489;-83
2022/05/11 08:37:22;;;;;;;6.87;2.75;;;;;;;25.40;29.66;100103.59;4443985;32;34207;-82
2022/05/11 08:39:50;;;;;;;8.57;5.30;;;;;;;25.47;28.31;100098.47;4443758;32;34288;-82
2022/05/11 08:42:18;;;;;;;5.30;3.33;;;;;;;25.65;28.93;100105.31;4431194;32;32993;-83
2022/05/11 08:44:49;;;;;;;9.55;4.50;;;;;;;25.72;28.60;100091.75;4471023;32;34082;-84
2022/05/11 08:47:25;;;;;;;10.35;4.80;;;;;;;25.98;30.19;100095.09;4444029;32;33901;-83
2022/05/11 08:50:06;;;;;;;5.47;3.30;;;;;;;26.05;30.97;100101.16;4456931;32;33626;-83
2022/05/11 08:53:01;;;;;;;6.50;2.92;;;;;;;26.13;29.35;100094.84;4443898;32;33884;-82
2022/05/11 08:55:49;;;;;;;6.03;2.80;;;;;;;26.19;30.55;100099.28;4443743;32;32430;-82
2022/05/11 08:58:34;;;;;;;6.93;2.97;;;;;;;26.21;29.90;100097.84;4444009;32;32523;-83
2022/05/11 09:01:03;;;;;;;6.90;2.92;;;;;;;26.20;30.67;100100.94;4456673;32;34312;-82
2022/05/11 09:03:41;;;;;;;5.82;2.80;;;;;;;26.31;28.67;100094.06;4443739;32;32920;-81
2022/05/11 09:06:24;;;;;;;8.02;3.70;;;;;;;26.39;28.66;100096.22;4456502;32;33637;-81
2022/05/11 09:08:53;;;;;;;21.35;14.43;;;;;;;26.52;30.19;100095.44;4456557;32;33384;-81
2022/05/11 09:11:31;;;;;;;10.15;4.25;;;;;;;26.69;29.65;100094.03;4430860;32;32499;-82
2022/05/11 09:14:00;;;;;;;10.43;3.80;;;;;;;26.74;29.63;100096.78;4456488;32;35265;-81
2022/05/11 09:16:39;;;;;;;8.18;3.92;;;;;;;26.85;29.15;100090.69;4456509;32;33661;-81
2022/05/11 09:19:19;;;;;;;6.70;2.95;;;;;;;27.01;28.46;100088.47;4443712;32;31817;-82
2022/05/11 09:21:54;;;;;;;5.57;2.67;;;;;;;27.04;27.53;100085.03;4456472;32;33821;-80
2022/05/11 09:24:32;;;;;;;6.70;3.20;;;;;;;26.92;27.83;100081.84;4430982;32;33778;-83
2022/05/11 09:27:28;;;;;;;6.32;2.53;;;;;;;27.05;27.25;100091.50;4455419;32;33586;-81
2022/05/11 09:30:01;;;;;;;6.62;3.10;;;;;;;27.43;27.36;100092.19;4440524;32;34445;-82
2022/05/11 09:32:37;;;;;;;7.40;2.80;;;;;;;27.61;28.30;100088.50;4443640;32;32293;-81
2022/05/11 09:35:20;;;;;;;10.13;6.72;;;;;;;27.44;26.82;100086.25;4443896;32;33044;-81
2022/05/11 09:38:05;;;;;;;8.90;4.85;;;;;;;27.46;27.47;100088.75;4456728;32;34097;-82
2022/05/11 09:41:10;;;;;;;7.40;4.30;;;;;;;27.43;27.60;100087.41;4456490;32;34362;-82
2022/05/11 09:43:53;;;;;;;5.90;3.40;;;;;;;27.75;27.11;100089.34;4430956;32;33177;-81
2022/05/11 09:46:30;;;;;;;12.57;8.25;;;;;;;28.08;27.29;100086.38;4443550;32;32783;-80
2022/05/11 09:49:09;;;;;;;10.73;5.25;;;;;;;28.20;27.17;100086.66;4443633;32;32412;-81
2022/05/11 09:51:41;;;;;;;7.72;3.72;;;;;;;28.22;26.97;100080.75;4456235;32;33051;-81
2022/05/11 09:54:18;;;;;;;7.45;3.90;;;;;;;28.46;28.30;100078.50;4456486;32;34786;-81
2022/05/11 09:56:56;;;;;;;7.50;3.50;;;;;;;28.69;26.62;100079.31;4456633;32;34448;-82
2022/05/11 09:59:30;;;;;;;9.02;4.15;;;;;;;28.64;27.42;100083.09;4443735;32;33516;-81
2022/05/11 10:02:22;;;;;;;8.45;4.55;;;;;;;28.80;27.30;100083.56;4456263;32;33318;-82
2022/05/11 10:05:12;;;;;;;6.45;3.37;;;;;;;28.69;27.17;100074.50;4456379;32;34166;-82
2022/05/11 10:08:19;;;;;;;6.12;3.08;;;;;;;28.87;26.99;100072.69;4443235;32;33820;-81
2022/05/11 10:10:59;;;;;;;7.32;3.40;;;;;;;29.04;26.75;100074.81;4439222;32;33918;-81
2022/05/11 10:13:37;;;;;;;6.50;3.17;;;;;;;29.41;25.00;100076.34;4429036;32;32840;-80
2022/05/11 10:21:54;;;;;;;5.82;2.97;;;;;;;29.74;24.54;100069.19;4442956;32;35018;-80
2022/05/11 10:24:52;;;;;;;6.35;2.75;;;;;;;29.56;25.14;100058.97;4427960;32;31775;-81
2022/05/11 10:27:28;;;;;;;8.57;4.80;;;;;;;28.61;23.95;100065.97;4419025;32;34615;-83
2022/05/11 10:29:58;;;;;;;6.95;3.67;;;;;;;29.00;25.32;100068.13;4440654;32;35354;-83
2022/05/11 10:32:53;;;;;;;7.53;3.53;;;;;;;29.09;25.18;100069.84;4440590;32;33527;-84
2022/05/11 10:35:32;;;;;;;7.53;3.60;;;;;;;29.00;25.91;100068.97;4439440;32;31599;-87
2022/05/11 10:38:25;;;;;;;9.57;3.35;;;;;;;29.07;25.84;100065.69;4427588;32;34747;-84
2022/05/11 10:40:59;;;;;;;57.10;6.35;;;;;;;29.01;27.39;100059.31;4427519;32;33725;-85
2022/05/11 10:44:03;;;;;;;10.63;3.05;;;;;;;29.38;27.86;100054.34;4427609;32;32424;-85
2022/05/11 10:46:36;;;;;;;8.13;3.30;;;;;;;29.67;26.35;100056.69;4427367;32;32576;-86
2022/05/11 10:49:15;;;;;;;7.47;2.87;;;;;;;29.95;26.57;100049.59;4440068;32;33895;-84
2022/05/11 10:52:06;;;;;;;15.43;11.18;;;;;;;30.01;25.43;100044.66;4427252;32;32836;-86
2022/05/11 10:54:57;;;;;;;7.75;2.80;;;;;;;30.26;25.24;100034.53;4440175;32;33808;-86
2022/05/11 10:57:46;;;;;;;6.10;2.80;;;;;;;30.44;22.30;100041.88;4414182;32;31877;-86
2022/05/11 11:00:24;;;;;;;5.28;2.37;;;;;;;30.69;20.83;100040.22;4428044;32;34021;-88
2022/05/11 11:03:10;;;;;;;6.78;2.60;;;;;;;30.57;19.33;100049.38;4427436;32;34676;-88
2022/05/11 11:09:01;;;;;;;4.75;2.15;;;;;;;31.30;23.74;100038.09;4432534;32;32476;-88
2022/05/11 11:11:44;;;;;;;4.53;2.50;;;;;;;31.46;21.15;100030.69;4455515;32;34497;-86
2022/05/11 11:14:14;;;;;;;5.93;2.35;;;;;;;31.45;21.14;100029.03;4456070;32;34449;-89
2022/05/11 11:17:06;;;;;;;5.53;2.78;;;;;;;31.50;20.71;100025.19;4444573;32;32258;-85
2022/05/11 11:19:37;;;;;;;10.57;4.53;;;;;;;31.47;21.34;100032.38;4442888;32;33313;-84
2022/05/11 11:22:05;;;;;;;204.80;178.62;;;;;;;30.55;20.23;100028.22;4454416;32;34599;-86
2022/05/11 11:24:34;;;;;;;9.32;7.45;;;;;;;30.96;22.81;100027.69;4455587;32;34297;-87
2022/05/11 11:27:06;;;;;;;5.87;2.53;;;;;;;30.78;22.25;100024.88;4442611;32;34489;-86
2022/05/11 11:29:39;;;;;;;14.50;10.93;;;;;;;30.53;21.21;100030.53;4455861;32;34139;-86
2022/05/11 11:32:19;;;;;;;8.48;5.45;;;;;;;30.44;22.86;100028.53;4455620;32;32696;-86
2022/05/11 11:35:11;;;;;;;9.13;6.50;;;;;;;30.55;22.81;100023.34;4455490;32;32917;-87
2022/05/11 11:37:41;;;;;;;11.85;6.82;;;;;;;30.77;22.58;100022.38;4455093;32;33735;-87
2022/05/11 11:40:15;;;;;;;13.68;9.80;;;;;;;31.12;22.97;100015.47;4442068;32;31765;-86
2022/05/11 11:42:46;;;;;;;10.02;5.80;;;;;;;30.95;22.94;100015.50;4442332;32;33908;-87
2022/05/11 11:45:25;;;;;;;7.18;3.17;;;;;;;30.83;23.63;100017.34;4427072;32;34272;-88
2022/05/11 11:48:16;;;;;;;11.38;6.62;;;;;;;30.48;20.80;100009.72;4427016;32;32177;-87
2022/05/11 11:50:47;;;;;;;7.55;5.22;;;;;;;30.67;21.87;100008.53;4428904;32;31506;-87
2022/05/11 11:53:21;;;;;;;7.43;3.30;;;;;;;30.54;21.86;100003.88;4429436;32;33066;-87
2022/05/11 11:55:50;;;;;;;6.72;3.10;;;;;;;30.49;20.41;99999.22;4428922;32;33880;-87
2022/05/11 11:58:29;;;;;;;8.68;4.18;;;;;;;30.53;21.00;100000.22;4428562;32;32513;-87
2022/05/11 12:01:08;;;;;;;7.50;3.37;;;;;;;30.36;21.61;99992.56;4429214;32;33121;-87
2022/05/11 12:03:40;;;;;;;6.30;2.62;;;;;;;30.17;21.87;99997.72;4429628;32;34847;-86
2022/05/11 12:17:32;;;;;;;5.07;2.72;;;;;;;31.32;18.98;99967.69;4431838;32;33828;-87
2022/05/11 12:20:10;;;;;;;7.30;2.75;;;;;;;30.97;20.93;99973.47;4429787;32;34112;-84
2022/05/11 12:22:44;;;;;;;7.37;2.90;;;;;;;30.76;20.14;99975.34;4442786;32;33209;-86
2022/05/11 12:25:26;;;;;;;4.78;2.60;;;;;;;30.88;20.62;99964.16;4429733;32;33793;-86
2022/05/11 12:27:59;;;;;;;7.20;3.20;;;;;;;31.37;20.75;99965.50;4429327;32;33496;-87
2022/05/11 12:30:39;;;;;;;4.72;2.60;;;;;;;31.40;21.18;99964.81;4430186;32;33805;-87
2022/05/11 12:33:23;;;;;;;7.78;2.78;;;;;;;31.43;21.53;99957.63;4430561;32;33916;-86
2022/05/11 12:36:02;;;;;;;6.00;2.78;;;;;;;31.31;20.88;99954.69;4430605;32;33949;-87
2022/05/11 12:38:40;;;;;;;4.78;2.53;;;;;;;30.57;20.11;99953.06;4456685;32;36036;-86
2022/05/11 12:41:21;;;;;;;7.28;2.45;;;;;;;30.27;20.62;99954.06;4429896;32;34900;-85
2022/05/11 12:44:00;;;;;;;6.53;2.83;;;;;;;30.17;20.36;99949.59;4416498;32;32756;-85
2022/05/11 12:46:28;;;;;;;5.55;2.60;;;;;;;30.63;20.37;99948.88;4429493;32;32430;-88